sensor_id;sensor_type;location;lat;lon;timestamp;temperature;humidity
71175;DHT22;58876;51.994;4.472;2023-06-14T00:01:45;21.03;51.93
71175;DHT22;58876;51.994;4.472;2023-06-14T00:04:14;20.96;52.38
71175;DHT22;58876;51.994;4.472;2023-06-14T00:06:42;20.97;52.78
71175;DHT22;58876;51.994;4.472;2023-06-14T00:09:11;20.92;52.74
71175;DHT22;58876;51.994;4.472;2023-06-14T00:11:39;20.89;52.87
71175;DHT22;58876;51.994;4.472;2023-06-14T00:14:05;20.83;52.86
71175;DHT22;58876;51.994;4.472;2023-06-14T00:16:31;20.83;53.00
71175;DHT22;58876;51.994;4.472;2023-06-14T00:18:58;20.85;53.15
71175;DHT22;58876;51.994;4.472;2023-06-14T00:21:23;20.80;53.39
71175;DHT22;58876;51.994;4.472;2023-06-14T00:23:49;20.75;53.23
71175;DHT22;58876;51.994;4.472;2023-06-14T00:26:14;20.71;53.77
71175;DHT22;58876;51.994;4.472;2023-06-14T00:28:39;20.68;54.18
71175;DHT22;58876;51.994;4.472;2023-06-14T00:31:06;20.65;54.14
71175;DHT22;58876;51.994;4.472;2023-06-14T00:33:31;20.62;53.97
71175;DHT22;58876;51.994;4.472;2023-06-14T00:35:57;20.58;54.42
71175;DHT22;58876;51.994;4.472;2023-06-14T00:38:22;20.52;54.97
71175;DHT22;58876;51.994;4.472;2023-06-14T00:40:48;20.51;55.07
71175;DHT22;58876;51.994;4.472;2023-06-14T00:43:13;20.48;54.45
71175;DHT22;58876;51.994;4.472;2023-06-14T00:45:38;20.42;55.41
71175;DHT22;58876;51.994;4.472;2023-06-14T00:48:05;20.41;55.67
71175;DHT22;58876;51.994;4.472;2023-06-14T00:50:32;20.38;55.69
71175;DHT22;58876;51.994;4.472;2023-06-14T00:53:02;20.37;55.46
71175;DHT22;58876;51.994;4.472;2023-06-14T00:55:28;20.37;55.34
71175;DHT22;58876;51.994;4.472;2023-06-14T00:57:55;20.34;55.25
71175;DHT22;58876;51.994;4.472;2023-06-14T01:00:21;20.28;56.06
71175;DHT22;58876;51.994;4.472;2023-06-14T01:02:47;20.27;56.10
71175;DHT22;58876;51.994;4.472;2023-06-14T01:05:14;20.25;55.87
71175;DHT22;58876;51.994;4.472;2023-06-14T01:08:01;20.25;55.16
71175;DHT22;58876;51.994;4.472;2023-06-14T01:15:46;20.14;56.09
71175;DHT22;58876;51.994;4.472;2023-06-14T01:18:12;20.08;55.83
71175;DHT22;58876;51.994;4.472;2023-06-14T01:20:45;20.04;56.00
71175;DHT22;58876;51.994;4.472;2023-06-14T01:23:15;19.93;56.68
71175;DHT22;58876;51.994;4.472;2023-06-14T01:25:42;19.91;56.01
71175;DHT22;58876;51.994;4.472;2023-06-14T01:28:10;19.90;56.64
71175;DHT22;58876;51.994;4.472;2023-06-14T01:30:41;19.83;56.31
71175;DHT22;58876;51.994;4.472;2023-06-14T01:33:22;19.79;56.31
71175;DHT22;58876;51.994;4.472;2023-06-14T01:35:53;19.77;55.93
71175;DHT22;58876;51.994;4.472;2023-06-14T01:38:22;19.74;55.33
71175;DHT22;58876;51.994;4.472;2023-06-14T01:40:49;19.76;56.13
71175;DHT22;58876;51.994;4.472;2023-06-14T01:43:16;19.74;55.85
71175;DHT22;58876;51.994;4.472;2023-06-14T01:45:45;19.62;56.28
71175;DHT22;58876;51.994;4.472;2023-06-14T01:48:13;19.62;55.73
71175;DHT22;58876;51.994;4.472;2023-06-14T01:50:38;19.60;56.24
71175;DHT22;58876;51.994;4.472;2023-06-14T01:53:07;19.60;55.39
71175;DHT22;58876;51.994;4.472;2023-06-14T01:55:34;19.52;55.46
71175;DHT22;58876;51.994;4.472;2023-06-14T01:58:03;19.50;55.91
71175;DHT22;58876;51.994;4.472;2023-06-14T02:00:28;19.48;55.73
71175;DHT22;58876;51.994;4.472;2023-06-14T02:02:54;19.43;56.44
71175;DHT22;58876;51.994;4.472;2023-06-14T02:05:19;19.35;56.20
71175;DHT22;58876;51.994;4.472;2023-06-14T02:07:45;19.32;55.83
71175;DHT22;58876;51.994;4.472;2023-06-14T02:10:11;19.28;55.63
71175;DHT22;58876;51.994;4.472;2023-06-14T02:12:37;19.25;55.78
71175;DHT22;58876;51.994;4.472;2023-06-14T02:15:03;19.19;55.67
71175;DHT22;58876;51.994;4.472;2023-06-14T02:17:29;19.20;55.76
71175;DHT22;58876;51.994;4.472;2023-06-14T02:19:54;19.19;55.93
71175;DHT22;58876;51.994;4.472;2023-06-14T02:22:20;19.15;56.19
71175;DHT22;58876;51.994;4.472;2023-06-14T02:24:47;19.11;56.68
71175;DHT22;58876;51.994;4.472;2023-06-14T02:27:12;19.01;56.08
71175;DHT22;58876;51.994;4.472;2023-06-14T02:29:38;18.99;56.26
71175;DHT22;58876;51.994;4.472;2023-06-14T02:32:04;18.94;56.16
71175;DHT22;58876;51.994;4.472;2023-06-14T02:34:33;18.92;55.74
71175;DHT22;58876;51.994;4.472;2023-06-14T02:36:59;18.91;55.58
71175;DHT22;58876;51.994;4.472;2023-06-14T02:39:24;18.94;55.22
71175;DHT22;58876;51.994;4.472;2023-06-14T02:41:50;18.91;55.74
71175;DHT22;58876;51.994;4.472;2023-06-14T02:44:17;18.81;55.55
71175;DHT22;58876;51.994;4.472;2023-06-14T02:46:43;18.78;55.41
71175;DHT22;58876;51.994;4.472;2023-06-14T02:49:10;18.72;55.31
71175;DHT22;58876;51.994;4.472;2023-06-14T02:51:35;18.77;55.94
71175;DHT22;58876;51.994;4.472;2023-06-14T02:54:00;18.70;55.85
71175;DHT22;58876;51.994;4.472;2023-06-14T02:56:26;18.70;55.16
71175;DHT22;58876;51.994;4.472;2023-06-14T02:58:52;18.72;55.50
71175;DHT22;58876;51.994;4.472;2023-06-14T03:01:18;18.65;55.06
71175;DHT22;58876;51.994;4.472;2023-06-14T03:03:46;18.68;55.87
71175;DHT22;58876;51.994;4.472;2023-06-14T03:06:11;18.63;55.74
71175;DHT22;58876;51.994;4.472;2023-06-14T03:08:40;18.56;55.21
71175;DHT22;58876;51.994;4.472;2023-06-14T03:11:06;18.53;55.84
71175;DHT22;58876;51.994;4.472;2023-06-14T03:13:34;18.54;55.68
71175;DHT22;58876;51.994;4.472;2023-06-14T03:16:00;18.56;55.70
71175;DHT22;58876;51.994;4.472;2023-06-14T03:18:29;18.46;55.78
71175;DHT22;58876;51.994;4.472;2023-06-14T03:20:56;18.46;56.14
71175;DHT22;58876;51.994;4.472;2023-06-14T03:23:23;18.47;55.18
71175;DHT22;58876;51.994;4.472;2023-06-14T03:25:48;18.44;56.31
71175;DHT22;58876;51.994;4.472;2023-06-14T03:28:14;18.44;55.74
71175;DHT22;58876;51.994;4.472;2023-06-14T03:30:39;18.44;55.08
71175;DHT22;58876;51.994;4.472;2023-06-14T03:33:05;18.44;55.39
71175;DHT22;58876;51.994;4.472;2023-06-14T03:35:30;18.37;55.96
71175;DHT22;58876;51.994;4.472;2023-06-14T03:37:55;18.37;56.19
71175;DHT22;58876;51.994;4.472;2023-06-14T03:40:21;18.39;55.97
71175;DHT22;58876;51.994;4.472;2023-06-14T03:42:47;18.36;55.94
71175;DHT22;58876;51.994;4.472;2023-06-14T03:45:12;18.39;55.42
71175;DHT22;58876;51.994;4.472;2023-06-14T03:47:38;18.36;55.53
71175;DHT22;58876;51.994;4.472;2023-06-14T03:50:04;18.41;55.54
71175;DHT22;58876;51.994;4.472;2023-06-14T03:52:30;18.39;56.03
71175;DHT22;58876;51.994;4.472;2023-06-14T03:54:56;18.37;56.23
71175;DHT22;58876;51.994;4.472;2023-06-14T03:57:23;18.36;56.63
71175;DHT22;58876;51.994;4.472;2023-06-14T03:59:49;18.40;55.97
71175;DHT22;58876;51.994;4.472;2023-06-14T04:02:15;18.37;56.19
71175;DHT22;58876;51.994;4.472;2023-06-14T04:04:42;18.39;55.75
71175;DHT22;58876;51.994;4.472;2023-06-14T04:07:15;18.30;56.12
71175;DHT22;58876;51.994;4.472;2023-06-14T04:09:45;18.33;56.01
71175;DHT22;58876;51.994;4.472;2023-06-14T04:12:10;18.36;55.90
71175;DHT22;58876;51.994;4.472;2023-06-14T04:14:40;18.39;55.97
71175;DHT22;58876;51.994;4.472;2023-06-14T04:17:06;18.34;56.39
71175;DHT22;58876;51.994;4.472;2023-06-14T04:19:31;18.34;55.96
71175;DHT22;58876;51.994;4.472;2023-06-14T04:21:58;18.33;56.10
71175;DHT22;58876;51.994;4.472;2023-06-14T04:24:26;18.37;56.12
71175;DHT22;58876;51.994;4.472;2023-06-14T04:26:58;18.40;55.80
71175;DHT22;58876;51.994;4.472;2023-06-14T04:29:24;18.36;55.79
71175;DHT22;58876;51.994;4.472;2023-06-14T04:31:53;18.37;56.47
71175;DHT22;58876;51.994;4.472;2023-06-14T04:34:20;18.40;55.40
71175;DHT22;58876;51.994;4.472;2023-06-14T04:36:47;18.40;55.66
71175;DHT22;58876;51.994;4.472;2023-06-14T04:39:22;18.44;55.76
71175;DHT22;58876;51.994;4.472;2023-06-14T04:41:48;18.43;56.19
71175;DHT22;58876;51.994;4.472;2023-06-14T04:44:17;18.47;56.17
71175;DHT22;58876;51.994;4.472;2023-06-14T04:46:43;18.51;55.74
71175;DHT22;58876;51.994;4.472;2023-06-14T04:49:13;18.49;55.96
71175;DHT22;58876;51.994;4.472;2023-06-14T04:51:41;18.50;55.74
71175;DHT22;58876;51.994;4.472;2023-06-14T04:54:08;18.54;55.39
71175;DHT22;58876;51.994;4.472;2023-06-14T04:56:36;18.56;55.91
71175;DHT22;58876;51.994;4.472;2023-06-14T04:59:03;18.59;55.51
71175;DHT22;58876;51.994;4.472;2023-06-14T05:01:32;18.64;56.14
71175;DHT22;58876;51.994;4.472;2023-06-14T05:03:59;18.65;55.51
71175;DHT22;58876;51.994;4.472;2023-06-14T05:06:25;18.77;55.07
71175;DHT22;58876;51.994;4.472;2023-06-14T05:08:53;18.80;55.59
71175;DHT22;58876;51.994;4.472;2023-06-14T05:11:19;18.85;55.49
71175;DHT22;58876;51.994;4.472;2023-06-14T05:13:44;18.95;54.92
71175;DHT22;58876;51.994;4.472;2023-06-14T05:16:11;18.95;54.96
71175;DHT22;58876;51.994;4.472;2023-06-14T05:18:36;19.02;54.30
71175;DHT22;58876;51.994;4.472;2023-06-14T05:21:02;19.07;54.20
71175;DHT22;58876;51.994;4.472;2023-06-14T05:23:29;19.09;54.14
71175;DHT22;58876;51.994;4.472;2023-06-14T05:25:55;19.08;53.63
71175;DHT22;58876;51.994;4.472;2023-06-14T05:28:20;19.14;54.17
71175;DHT22;58876;51.994;4.472;2023-06-14T05:30:46;19.20;54.23
71175;DHT22;58876;51.994;4.472;2023-06-14T05:33:11;19.19;53.73
71175;DHT22;58876;51.994;4.472;2023-06-14T05:35:37;19.28;54.12
71175;DHT22;58876;51.994;4.472;2023-06-14T05:38:03;19.28;54.04
71175;DHT22;58876;51.994;4.472;2023-06-14T05:40:28;19.35;52.89
71175;DHT22;58876;51.994;4.472;2023-06-14T05:42:54;19.40;53.17
71175;DHT22;58876;51.994;4.472;2023-06-14T05:45:20;19.42;53.08
71175;DHT22;58876;51.994;4.472;2023-06-14T05:47:45;19.40;52.86
71175;DHT22;58876;51.994;4.472;2023-06-14T05:50:11;19.48;52.31
71175;DHT22;58876;51.994;4.472;2023-06-14T05:52:36;19.49;52.02
71175;DHT22;58876;51.994;4.472;2023-06-14T05:55:03;19.56;51.95
71175;DHT22;58876;51.994;4.472;2023-06-14T05:57:29;19.60;51.90
71175;DHT22;58876;51.994;4.472;2023-06-14T05:59:55;19.66;51.51
71175;DHT22;58876;51.994;4.472;2023-06-14T06:02:20;19.73;51.35
71175;DHT22;58876;51.994;4.472;2023-06-14T06:04:46;19.77;51.71
71175;DHT22;58876;51.994;4.472;2023-06-14T06:07:11;19.86;51.03
71175;DHT22;58876;51.994;4.472;2023-06-14T06:09:37;19.88;50.59
71175;DHT22;58876;51.994;4.472;2023-06-14T06:12:02;19.87;50.19
71175;DHT22;58876;51.994;4.472;2023-06-14T06:14:28;19.97;50.53
71175;DHT22;58876;51.994;4.472;2023-06-14T06:16:54;20.08;49.63
71175;DHT22;58876;51.994;4.472;2023-06-14T06:19:20;20.22;50.46
71175;DHT22;58876;51.994;4.472;2023-06-14T06:21:45;20.31;50.38
71175;DHT22;58876;51.994;4.472;2023-06-14T06:24:11;20.39;49.09
71175;DHT22;58876;51.994;4.472;2023-06-14T06:26:36;20.51;48.84
71175;DHT22;58876;51.994;4.472;2023-06-14T06:29:02;20.64;48.80
71175;DHT22;58876;51.994;4.472;2023-06-14T06:31:27;20.73;49.82
71175;DHT22;58876;51.994;4.472;2023-06-14T06:33:54;20.80;48.41
71175;DHT22;58876;51.994;4.472;2023-06-14T06:36:20;20.95;48.42
71175;DHT22;58876;51.994;4.472;2023-06-14T06:38:47;21.07;47.49
71175;DHT22;58876;51.994;4.472;2023-06-14T06:41:12;21.30;47.61
71175;DHT22;58876;51.994;4.472;2023-06-14T06:43:38;21.45;47.86
71175;DHT22;58876;51.994;4.472;2023-06-14T06:46:03;21.55;47.63
71175;DHT22;58876;51.994;4.472;2023-06-14T06:48:29;21.71;47.76
71175;DHT22;58876;51.994;4.472;2023-06-14T06:50:55;21.85;46.53
71175;DHT22;58876;51.994;4.472;2023-06-14T06:53:20;21.95;46.27
71175;DHT22;58876;51.994;4.472;2023-06-14T06:55:45;22.15;46.28
71175;DHT22;58876;51.994;4.472;2023-06-14T06:58:13;22.32;45.62
71175;DHT22;58876;51.994;4.472;2023-06-14T07:00:39;22.37;45.75
71175;DHT22;58876;51.994;4.472;2023-06-14T07:03:05;22.50;45.89
71175;DHT22;58876;51.994;4.472;2023-06-14T07:05:30;22.44;45.64
71175;DHT22;58876;51.994;4.472;2023-06-14T07:07:55;22.53;45.86
71175;DHT22;58876;51.994;4.472;2023-06-14T07:10:21;22.80;46.25
71175;DHT22;58876;51.994;4.472;2023-06-14T07:12:47;23.04;45.05
71175;DHT22;58876;51.994;4.472;2023-06-14T07:15:12;23.35;45.21
71175;DHT22;58876;51.994;4.472;2023-06-14T07:17:38;23.49;43.84
71175;DHT22;58876;51.994;4.472;2023-06-14T07:20:04;23.65;43.52
71175;DHT22;58876;51.994;4.472;2023-06-14T07:22:43;23.69;40.57
71175;DHT22;58876;51.994;4.472;2023-06-14T07:25:09;23.73;41.88
71175;DHT22;58876;51.994;4.472;2023-06-14T07:27:37;23.66;41.15
71175;DHT22;58876;51.994;4.472;2023-06-14T07:30:03;23.70;41.65
71175;DHT22;58876;51.994;4.472;2023-06-14T07:32:29;24.06;41.37
71175;DHT22;58876;51.994;4.472;2023-06-14T07:34:55;24.47;42.42
71175;DHT22;58876;51.994;4.472;2023-06-14T07:37:20;24.89;40.94
71175;DHT22;58876;51.994;4.472;2023-06-14T07:39:45;24.96;39.80
71175;DHT22;58876;51.994;4.472;2023-06-14T07:42:11;24.85;39.32
71175;DHT22;58876;51.994;4.472;2023-06-14T07:44:36;25.05;39.25
71175;DHT22;58876;51.994;4.472;2023-06-14T07:47:02;25.43;39.11
71175;DHT22;58876;51.994;4.472;2023-06-14T07:49:27;25.87;38.72
71175;DHT22;58876;51.994;4.472;2023-06-14T07:51:53;26.39;37.59
71175;DHT22;58876;51.994;4.472;2023-06-14T07:54:19;27.01;34.91
71175;DHT22;58876;51.994;4.472;2023-06-14T07:56:44;27.23;34.67
71175;DHT22;58876;51.994;4.472;2023-06-14T07:59:10;27.51;34.15
71175;DHT22;58876;51.994;4.472;2023-06-14T08:01:35;27.81;33.89
71175;DHT22;58876;51.994;4.472;2023-06-14T08:04:01;28.10;33.96
71175;DHT22;58876;51.994;4.472;2023-06-14T08:06:27;28.48;33.99
71175;DHT22;58876;51.994;4.472;2023-06-14T08:08:52;29.02;32.14
71175;DHT22;58876;51.994;4.472;2023-06-14T08:11:18;29.37;32.06
71175;DHT22;58876;51.994;4.472;2023-06-14T08:13:43;29.61;31.78
71175;DHT22;58876;51.994;4.472;2023-06-14T08:16:09;29.88;30.68
71175;DHT22;58876;51.994;4.472;2023-06-14T08:18:34;29.71;30.13
71175;DHT22;58876;51.994;4.472;2023-06-14T08:21:00;29.85;30.96
71175;DHT22;58876;51.994;4.472;2023-06-14T08:23:25;30.08;32.05
71175;DHT22;58876;51.994;4.472;2023-06-14T08:25:51;30.21;31.61
71175;DHT22;58876;51.994;4.472;2023-06-14T08:28:16;30.38;31.14
71175;DHT22;58876;51.994;4.472;2023-06-14T08:30:42;30.75;30.78
71175;DHT22;58876;51.994;4.472;2023-06-14T08:33:08;30.51;31.27
71175;DHT22;58876;51.994;4.472;2023-06-14T08:35:34;29.81;31.80
71175;DHT22;58876;51.994;4.472;2023-06-14T08:38:02;29.87;30.57
71175;DHT22;58876;51.994;4.472;2023-06-14T08:40:30;29.54;30.98
71175;DHT22;58876;51.994;4.472;2023-06-14T08:42:56;29.16;30.89
71175;DHT22;58876;51.994;4.472;2023-06-14T08:45:23;28.91;31.36
71175;DHT22;58876;51.994;4.472;2023-06-14T08:47:50;28.79;32.04
71175;DHT22;58876;51.994;4.472;2023-06-14T08:50:21;29.39;32.55
71175;DHT22;58876;51.994;4.472;2023-06-14T08:52:53;29.63;30.87
71175;DHT22;58876;51.994;4.472;2023-06-14T08:55:19;29.82;30.87
71175;DHT22;58876;51.994;4.472;2023-06-14T08:57:46;29.82;30.85
71175;DHT22;58876;51.994;4.472;2023-06-14T09:00:14;29.53;30.36
71175;DHT22;58876;51.994;4.472;2023-06-14T09:02:40;29.33;30.57
71175;DHT22;58876;51.994;4.472;2023-06-14T09:05:11;29.27;30.87
71175;DHT22;58876;51.994;4.472;2023-06-14T09:07:41;29.96;31.57
71175;DHT22;58876;51.994;4.472;2023-06-14T09:10:11;30.38;29.51
71175;DHT22;58876;51.994;4.472;2023-06-14T09:12:36;30.15;29.09
71175;DHT22;58876;51.994;4.472;2023-06-14T09:15:06;29.60;30.73
71175;DHT22;58876;51.994;4.472;2023-06-14T09:17:36;30.00;29.28
71175;DHT22;58876;51.994;4.472;2023-06-14T09:20:03;30.02;30.44
71175;DHT22;58876;51.994;4.472;2023-06-14T09:22:32;29.45;30.56
71175;DHT22;58876;51.994;4.472;2023-06-14T09:24:59;29.78;30.47
71175;DHT22;58876;51.994;4.472;2023-06-14T09:27:26;30.05;29.20
71175;DHT22;58876;51.994;4.472;2023-06-14T09:29:52;30.07;29.18
71175;DHT22;58876;51.994;4.472;2023-06-14T09:32:18;29.73;30.24
71175;DHT22;58876;51.994;4.472;2023-06-14T09:34:45;29.57;29.98
71175;DHT22;58876;51.994;4.472;2023-06-14T09:37:10;29.32;30.69
71175;DHT22;58876;51.994;4.472;2023-06-14T09:39:49;29.63;30.26
71175;DHT22;58876;51.994;4.472;2023-06-14T09:42:18;29.84;29.65
71175;DHT22;58876;51.994;4.472;2023-06-14T09:44:49;29.97;29.43
71175;DHT22;58876;51.994;4.472;2023-06-14T09:47:16;29.81;29.01
71175;DHT22;58876;51.994;4.472;2023-06-14T09:49:42;29.47;29.37
71175;DHT22;58876;51.994;4.472;2023-06-14T09:52:14;29.73;29.37
71175;DHT22;58876;51.994;4.472;2023-06-14T09:54:42;29.57;29.34
71175;DHT22;58876;51.994;4.472;2023-06-14T09:57:10;28.83;30.13
71175;DHT22;58876;51.994;4.472;2023-06-14T09:59:42;28.65;30.85
71175;DHT22;58876;51.994;4.472;2023-06-14T10:02:18;28.69;29.56
71175;DHT22;58876;51.994;4.472;2023-06-14T10:05:09;28.78;29.92
71175;DHT22;58876;51.994;4.472;2023-06-14T10:07:48;28.24;28.36
71175;DHT22;58876;51.994;4.472;2023-06-14T10:10:14;28.21;30.14
71175;DHT22;58876;51.994;4.472;2023-06-14T10:12:40;28.54;30.04
71175;DHT22;58876;51.994;4.472;2023-06-14T10:15:09;28.48;29.52
71175;DHT22;58876;51.994;4.472;2023-06-14T10:17:59;28.45;30.31
71175;DHT22;58876;51.994;4.472;2023-06-14T10:20:38;28.62;29.51
71175;DHT22;58876;51.994;4.472;2023-06-14T10:23:13;28.72;29.88
71175;DHT22;58876;51.994;4.472;2023-06-14T10:25:42;28.92;28.97
71175;DHT22;58876;51.994;4.472;2023-06-14T10:28:19;29.08;28.97
71175;DHT22;58876;51.994;4.472;2023-06-14T10:33:49;28.72;29.64
71175;DHT22;58876;51.994;4.472;2023-06-14T10:36:28;28.94;28.23
71175;DHT22;58876;51.994;4.472;2023-06-14T10:41:35;28.82;29.30
71175;DHT22;58876;51.994;4.472;2023-06-14T10:44:17;29.10;27.39
71175;DHT22;58876;51.994;4.472;2023-06-14T10:46:59;29.25;26.83
71175;DHT22;58876;51.994;4.472;2023-06-14T10:49:45;29.05;26.92
71175;DHT22;58876;51.994;4.472;2023-06-14T10:52:18;28.81;27.55
71175;DHT22;58876;51.994;4.472;2023-06-14T10:55:02;28.69;29.02
71175;DHT22;58876;51.994;4.472;2023-06-14T11:00:11;28.82;28.65
71175;DHT22;58876;51.994;4.472;2023-06-14T11:05:29;29.47;28.53
71175;DHT22;58876;51.994;4.472;2023-06-14T11:08:39;29.81;28.34
71175;DHT22;58876;51.994;4.472;2023-06-14T11:11:00;29.67;27.77
71175;DHT22;58876;51.994;4.472;2023-06-14T11:13:26;29.70;29.61
71175;DHT22;58876;51.994;4.472;2023-06-14T11:15:52;29.88;27.98
71175;DHT22;58876;51.994;4.472;2023-06-14T11:18:23;29.43;28.97
71175;DHT22;58876;51.994;4.472;2023-06-14T11:20:50;29.22;28.89
71175;DHT22;58876;51.994;4.472;2023-06-14T11:23:16;29.18;28.96
71175;DHT22;58876;51.994;4.472;2023-06-14T11:25:41;29.64;28.78
71175;DHT22;58876;51.994;4.472;2023-06-14T11:28:07;29.90;27.02
71175;DHT22;58876;51.994;4.472;2023-06-14T11:30:32;29.97;26.83
71175;DHT22;58876;51.994;4.472;2023-06-14T11:32:58;30.05;26.53
71175;DHT22;58876;51.994;4.472;2023-06-14T11:35:24;29.96;27.32
71175;DHT22;58876;51.994;4.472;2023-06-14T11:37:55;29.91;25.68
71175;DHT22;58876;51.994;4.472;2023-06-14T11:40:25;29.63;26.90
71175;DHT22;58876;51.994;4.472;2023-06-14T11:42:58;29.74;27.00
71175;DHT22;58876;51.994;4.472;2023-06-14T11:45:25;29.98;27.21
71175;DHT22;58876;51.994;4.472;2023-06-14T11:47:50;30.40;27.64
71175;DHT22;58876;51.994;4.472;2023-06-14T11:50:15;30.62;25.92
71175;DHT22;58876;51.994;4.472;2023-06-14T11:52:41;30.53;25.48
71175;DHT22;58876;51.994;4.472;2023-06-14T11:55:07;30.38;26.73
71175;DHT22;58876;51.994;4.472;2023-06-14T11:57:36;30.62;26.86
71175;DHT22;58876;51.994;4.472;2023-06-14T12:00:06;30.69;25.43
71175;DHT22;58876;51.994;4.472;2023-06-14T12:02:37;30.51;26.37
71175;DHT22;58876;51.994;4.472;2023-06-14T12:05:06;30.59;26.54
71175;DHT22;58876;51.994;4.472;2023-06-14T12:07:36;30.52;25.48
71175;DHT22;58876;51.994;4.472;2023-06-14T12:12:28;30.52;25.24
71175;DHT22;58876;51.994;4.472;2023-06-14T12:14:57;30.35;26.45
71175;DHT22;58876;51.994;4.472;2023-06-14T12:17:23;30.59;25.52
71175;DHT22;58876;51.994;4.472;2023-06-14T12:19:49;30.72;25.10
71175;DHT22;58876;51.994;4.472;2023-06-14T12:22:16;30.94;26.50
71175;DHT22;58876;51.994;4.472;2023-06-14T12:24:43;30.76;25.09
71175;DHT22;58876;51.994;4.472;2023-06-14T12:27:09;31.01;25.84
71175;DHT22;58876;51.994;4.472;2023-06-14T12:29:38;31.37;25.92
71175;DHT22;58876;51.994;4.472;2023-06-14T12:32:03;31.82;25.83
71175;DHT22;58876;51.994;4.472;2023-06-14T12:34:29;32.08;25.88
71175;DHT22;58876;51.994;4.472;2023-06-14T12:36:56;32.30;25.53
71175;DHT22;58876;51.994;4.472;2023-06-14T12:39:22;32.56;27.24
71175;DHT22;58876;51.994;4.472;2023-06-14T12:41:48;32.54;23.55
71175;DHT22;58876;51.994;4.472;2023-06-14T12:44:14;32.47;25.10
71175;DHT22;58876;51.994;4.472;2023-06-14T12:46:41;32.01;25.04
71175;DHT22;58876;51.994;4.472;2023-06-14T12:49:09;31.92;27.20
71175;DHT22;58876;51.994;4.472;2023-06-14T12:51:35;32.05;26.21
71175;DHT22;58876;51.994;4.472;2023-06-14T12:54:00;32.22;26.42
71175;DHT22;58876;51.994;4.472;2023-06-14T12:56:26;32.27;27.01
71175;DHT22;58876;51.994;4.472;2023-06-14T12:58:52;32.16;25.76
71175;DHT22;58876;51.994;4.472;2023-06-14T13:01:18;32.32;24.77
71175;DHT22;58876;51.994;4.472;2023-06-14T13:03:44;32.43;25.72
71175;DHT22;58876;51.994;4.472;2023-06-14T13:06:10;32.26;26.93
71175;DHT22;58876;51.994;4.472;2023-06-14T13:08:36;32.19;25.24
71175;DHT22;58876;51.994;4.472;2023-06-14T13:11:01;32.12;26.25
71175;DHT22;58876;51.994;4.472;2023-06-14T13:13:27;32.17;25.06
71175;DHT22;58876;51.994;4.472;2023-06-14T13:15:52;31.75;24.68
71175;DHT22;58876;51.994;4.472;2023-06-14T13:18:18;31.81;27.38
71175;DHT22;58876;51.994;4.472;2023-06-14T13:20:45;32.02;25.25
71175;DHT22;58876;51.994;4.472;2023-06-14T13:23:11;31.59;25.72
71175;DHT22;58876;51.994;4.472;2023-06-14T13:25:37;31.74;25.43
71175;DHT22;58876;51.994;4.472;2023-06-14T13:28:04;31.78;25.37
71175;DHT22;58876;51.994;4.472;2023-06-14T13:30:31;32.16;25.90
71175;DHT22;58876;51.994;4.472;2023-06-14T13:32:56;31.71;25.24
71175;DHT22;58876;51.994;4.472;2023-06-14T13:35:22;32.03;25.92
71175;DHT22;58876;51.994;4.472;2023-06-14T13:37:48;32.09;24.02
71175;DHT22;58876;51.994;4.472;2023-06-14T13:40:14;31.76;25.73
71175;DHT22;58876;51.994;4.472;2023-06-14T13:42:39;31.88;26.43
71175;DHT22;58876;51.994;4.472;2023-06-14T13:45:06;32.02;23.94
71175;DHT22;58876;51.994;4.472;2023-06-14T13:47:32;31.92;25.25
71175;DHT22;58876;51.994;4.472;2023-06-14T13:49:57;32.03;25.48
71175;DHT22;58876;51.994;4.472;2023-06-14T13:52:24;32.12;25.79
71175;DHT22;58876;51.994;4.472;2023-06-14T13:54:49;32.37;25.24
71175;DHT22;58876;51.994;4.472;2023-06-14T13:57:15;32.64;26.25
71175;DHT22;58876;51.994;4.472;2023-06-14T13:59:41;32.73;24.31
71175;DHT22;58876;51.994;4.472;2023-06-14T14:02:07;32.05;24.74
71175;DHT22;58876;51.994;4.472;2023-06-14T14:04:34;31.81;24.73
71175;DHT22;58876;51.994;4.472;2023-06-14T14:07:03;31.71;25.91
71175;DHT22;58876;51.994;4.472;2023-06-14T14:09:29;31.93;25.03
71175;DHT22;58876;51.994;4.472;2023-06-14T14:11:54;31.41;26.38
71175;DHT22;58876;51.994;4.472;2023-06-14T14:14:20;31.64;26.58
71175;DHT22;58876;51.994;4.472;2023-06-14T14:16:46;31.96;25.84
71175;DHT22;58876;51.994;4.472;2023-06-14T14:19:11;32.39;27.00
71175;DHT22;58876;51.994;4.472;2023-06-14T14:21:36;32.30;26.23
71175;DHT22;58876;51.994;4.472;2023-06-14T14:24:03;32.52;25.77
71175;DHT22;58876;51.994;4.472;2023-06-14T14:26:28;32.40;24.15
71175;DHT22;58876;51.994;4.472;2023-06-14T14:28:54;32.23;25.67
71175;DHT22;58876;51.994;4.472;2023-06-14T14:31:19;32.24;26.15
71175;DHT22;58876;51.994;4.472;2023-06-14T14:33:45;32.41;26.99
71175;DHT22;58876;51.994;4.472;2023-06-14T14:36:10;32.53;24.65
71175;DHT22;58876;51.994;4.472;2023-06-14T14:38:36;31.88;24.44
71175;DHT22;58876;51.994;4.472;2023-06-14T14:41:01;31.58;26.96
71175;DHT22;58876;51.994;4.472;2023-06-14T14:43:27;31.86;25.37
71175;DHT22;58876;51.994;4.472;2023-06-14T14:45:56;32.01;24.67
71175;DHT22;58876;51.994;4.472;2023-06-14T14:48:21;31.99;25.46
71175;DHT22;58876;51.994;4.472;2023-06-14T14:50:47;32.15;26.41
71175;DHT22;58876;51.994;4.472;2023-06-14T14:53:13;32.61;25.52
71175;DHT22;58876;51.994;4.472;2023-06-14T14:55:38;32.56;24.47
71175;DHT22;58876;51.994;4.472;2023-06-14T14:58:05;32.53;25.89
71175;DHT22;58876;51.994;4.472;2023-06-14T15:00:32;32.16;24.43
71175;DHT22;58876;51.994;4.472;2023-06-14T15:02:57;31.99;25.14
71175;DHT22;58876;51.994;4.472;2023-06-14T15:05:22;32.33;26.40
71175;DHT22;58876;51.994;4.472;2023-06-14T15:07:48;32.56;25.19
71175;DHT22;58876;51.994;4.472;2023-06-14T15:10:14;32.09;25.68
71175;DHT22;58876;51.994;4.472;2023-06-14T15:12:39;32.36;25.42
71175;DHT22;58876;51.994;4.472;2023-06-14T15:15:05;32.50;24.74
71175;DHT22;58876;51.994;4.472;2023-06-14T15:17:30;32.32;25.16
71175;DHT22;58876;51.994;4.472;2023-06-14T15:19:56;32.34;25.44
71175;DHT22;58876;51.994;4.472;2023-06-14T15:22:21;32.43;26.46
71175;DHT22;58876;51.994;4.472;2023-06-14T15:24:47;32.85;26.39
71175;DHT22;58876;51.994;4.472;2023-06-14T15:27:12;32.92;24.66
71175;DHT22;58876;51.994;4.472;2023-06-14T15:29:41;33.02;25.27
71175;DHT22;58876;51.994;4.472;2023-06-14T15:32:07;32.80;25.82
71175;DHT22;58876;51.994;4.472;2023-06-14T15:34:33;32.82;25.79
71175;DHT22;58876;51.994;4.472;2023-06-14T15:36:59;32.80;25.36
71175;DHT22;58876;51.994;4.472;2023-06-14T15:39:25;32.78;24.78
71175;DHT22;58876;51.994;4.472;2023-06-14T15:41:52;33.01;24.54
71175;DHT22;58876;51.994;4.472;2023-06-14T15:44:17;32.98;25.50
71175;DHT22;58876;51.994;4.472;2023-06-14T15:46:43;33.19;24.22
71175;DHT22;58876;51.994;4.472;2023-06-14T15:49:09;33.04;25.01